sensor_id;sensor_type;location;lat;lon;timestamp;P1;durP1;ratioP1;P2;durP2;ratioP2
8986;SDS011;4529;51.360;12.474;2022-09-01T00:01:48;2.27;;;1.63;;
8986;SDS011;4529;51.360;12.474;2022-09-01T00:06:51;1.50;;;1.40;;
8986;SDS011;4529;51.360;12.474;2022-09-01T00:11:54;1.50;;;1.40;;
8986;SDS011;4529;51.360;12.474;2022-09-01T00:16:58;1.60;;;1.50;;
8986;SDS011;4529;51.360;12.474;2022-09-01T00:22:01;3.67;;;1.40;;
8986;SDS011;4529;51.360;12.474;2022-09-01T00:27:04;1.30;;;1.30;;
8986;SDS011;4529;51.360;12.474;2022-09-01T00:32:08;1.50;;;1.40;;
8986;SDS011;4529;51.360;12.474;2022-09-01T00:37:11;2.20;;;1.50;;
8986;SDS011;4529;51.360;12.474;2022-09-01T00:42:15;2.27;;;1.40;;
8986;SDS011;4529;51.360;12.474;2022-09-01T00:47:18;1.50;;;1.40;;
8986;SDS011;4529;51.360;12.474;2022-09-01T00:52:25;2.90;;;1.50;;
8986;SDS011;4529;51.360;12.474;2022-09-01T00:57:31;2.33;;;1.67;;
8986;SDS011;4529;51.360;12.474;2022-09-01T01:02:34;1.30;;;1.30;;
8986;SDS011;4529;51.360;12.474;2022-09-01T01:07:38;1.67;;;1.50;;
8986;SDS011;4529;51.360;12.474;2022-09-01T01:12:42;1.60;;;1.50;;
8986;SDS011;4529;51.360;12.474;2022-09-01T01:17:45;1.60;;;1.50;;
8986;SDS011;4529;51.360;12.474;2022-09-01T01:22:52;1.73;;;1.43;;
8986;SDS011;4529;51.360;12.474;2022-09-01T01:33:10;1.80;;;1.47;;
8986;SDS011;4529;51.360;12.474;2022-09-01T01:38:14;1.30;;;1.20;;
8986;SDS011;4529;51.360;12.474;2022-09-01T01:43:17;1.47;;;1.37;;
8986;SDS011;4529;51.360;12.474;2022-09-01T01:48:21;2.40;;;1.40;;
8986;SDS011;4529;51.360;12.474;2022-09-01T01:53:24;1.60;;;1.50;;
8986;SDS011;4529;51.360;12.474;2022-09-01T01:58:28;1.67;;;1.57;;
8986;SDS011;4529;51.360;12.474;2022-09-01T02:03:32;1.70;;;1.60;;
8986;SDS011;4529;51.360;12.474;2022-09-01T02:08:35;1.57;;;1.47;;
8986;SDS011;4529;51.360;12.474;2022-09-01T02:13:38;1.97;;;1.87;;
8986;SDS011;4529;51.360;12.474;2022-09-01T02:18:43;1.83;;;1.53;;
8986;SDS011;4529;51.360;12.474;2022-09-01T02:23:50;1.63;;;1.53;;
8986;SDS011;4529;51.360;12.474;2022-09-01T02:28:51;2.67;;;1.73;;
8986;SDS011;4529;51.360;12.474;2022-09-01T02:33:55;1.57;;;1.50;;
8986;SDS011;4529;51.360;12.474;2022-09-01T02:38:58;3.10;;;1.60;;
8986;SDS011;4529;51.360;12.474;2022-09-01T02:44:02;1.63;;;1.53;;
8986;SDS011;4529;51.360;12.474;2022-09-01T02:49:05;1.67;;;1.57;;
8986;SDS011;4529;51.360;12.474;2022-09-01T02:54:09;1.60;;;1.50;;
8986;SDS011;4529;51.360;12.474;2022-09-01T02:59:16;1.60;;;1.50;;
8986;SDS011;4529;51.360;12.474;2022-09-01T03:04:19;1.63;;;1.40;;
8986;SDS011;4529;51.360;12.474;2022-09-01T03:09:22;1.50;;;1.40;;
8986;SDS011;4529;51.360;12.474;2022-09-01T03:14:25;2.53;;;1.67;;
8986;SDS011;4529;51.360;12.474;2022-09-01T03:19:29;1.77;;;1.67;;
8986;SDS011;4529;51.360;12.474;2022-09-01T03:24:32;2.10;;;1.60;;
8986;SDS011;4529;51.360;12.474;2022-09-01T03:29:36;1.77;;;1.60;;
8986;SDS011;4529;51.360;12.474;2022-09-01T03:34:39;1.80;;;1.70;;
8986;SDS011;4529;51.360;12.474;2022-09-01T03:39:43;1.83;;;1.60;;
8986;SDS011;4529;51.360;12.474;2022-09-01T03:44:46;1.83;;;1.70;;
8986;SDS011;4529;51.360;12.474;2022-09-01T03:49:50;1.80;;;1.70;;
8986;SDS011;4529;51.360;12.474;2022-09-01T03:54:53;1.50;;;1.40;;
8986;SDS011;4529;51.360;12.474;2022-09-01T03:59:58;1.90;;;1.80;;
8986;SDS011;4529;51.360;12.474;2022-09-01T04:05:01;1.73;;;1.63;;
8986;SDS011;4529;51.360;12.474;2022-09-01T04:10:05;2.07;;;1.70;;
8986;SDS011;4529;51.360;12.474;2022-09-01T04:15:08;2.50;;;1.50;;
8986;SDS011;4529;51.360;12.474;2022-09-01T04:20:11;1.90;;;1.70;;
8986;SDS011;4529;51.360;12.474;2022-09-01T04:25:18;1.70;;;1.60;;
8986;SDS011;4529;51.360;12.474;2022-09-01T04:30:21;1.50;;;1.40;;
8986;SDS011;4529;51.360;12.474;2022-09-01T04:35:25;1.80;;;1.70;;
8986;SDS011;4529;51.360;12.474;2022-09-01T04:40:28;1.67;;;1.50;;
8986;SDS011;4529;51.360;12.474;2022-09-01T04:45:33;1.70;;;1.60;;
8986;SDS011;4529;51.360;12.474;2022-09-01T04:50:39;1.80;;;1.60;;
8986;SDS011;4529;51.360;12.474;2022-09-01T04:55:43;1.97;;;1.60;;
8986;SDS011;4529;51.360;12.474;2022-09-01T05:00:46;1.80;;;1.70;;
8986;SDS011;4529;51.360;12.474;2022-09-01T05:05:50;2.40;;;1.50;;
8986;SDS011;4529;51.360;12.474;2022-09-01T05:10:54;1.80;;;1.50;;
8986;SDS011;4529;51.360;12.474;2022-09-01T05:16:03;3.40;;;1.80;;
8986;SDS011;4529;51.360;12.474;2022-09-01T05:21:04;2.77;;;1.80;;
8986;SDS011;4529;51.360;12.474;2022-09-01T05:26:18;1.80;;;1.70;;
8986;SDS011;4529;51.360;12.474;2022-09-01T05:31:20;1.60;;;1.50;;
8986;SDS011;4529;51.360;12.474;2022-09-01T05:36:23;1.60;;;1.40;;
8986;SDS011;4529;51.360;12.474;2022-09-01T05:41:27;1.77;;;1.30;;
8986;SDS011;4529;51.360;12.474;2022-09-01T05:46:30;1.60;;;1.50;;
8986;SDS011;4529;51.360;12.474;2022-09-01T05:51:33;4.13;;;1.40;;
8986;SDS011;4529;51.360;12.474;2022-09-01T05:56:37;1.33;;;1.33;;
8986;SDS011;4529;51.360;12.474;2022-09-01T06:01:40;1.80;;;1.60;;
8986;SDS011;4529;51.360;12.474;2022-09-01T06:06:45;2.40;;;1.43;;
8986;SDS011;4529;51.360;12.474;2022-09-01T06:11:47;1.87;;;1.13;;
8986;SDS011;4529;51.360;12.474;2022-09-01T06:16:51;1.60;;;1.50;;
8986;SDS011;4529;51.360;12.474;2022-09-01T06:21:54;3.97;;;1.37;;
8986;SDS011;4529;51.360;12.474;2022-09-01T06:26:58;1.50;;;1.40;;
8986;SDS011;4529;51.360;12.474;2022-09-01T06:32:01;3.57;;;1.50;;
8986;SDS011;4529;51.360;12.474;2022-09-01T06:37:05;1.43;;;1.33;;
8986;SDS011;4529;51.360;12.474;2022-09-01T06:42:08;2.57;;;1.53;;
8986;SDS011;4529;51.360;12.474;2022-09-01T06:47:12;1.30;;;1.30;;
8986;SDS011;4529;51.360;12.474;2022-09-01T06:52:15;2.07;;;1.33;;
8986;SDS011;4529;51.360;12.474;2022-09-01T06:57:19;1.47;;;1.30;;
8986;SDS011;4529;51.360;12.474;2022-09-01T07:02:22;2.50;;;1.50;;
8986;SDS011;4529;51.360;12.474;2022-09-01T07:07:26;1.47;;;1.30;;
8986;SDS011;4529;51.360;12.474;2022-09-01T07:12:29;1.30;;;1.30;;
8986;SDS011;4529;51.360;12.474;2022-09-01T07:17:32;2.70;;;1.23;;
8986;SDS011;4529;51.360;12.474;2022-09-01T07:22:36;1.70;;;1.57;;
8986;SDS011;4529;51.360;12.474;2022-09-01T07:27:40;2.67;;;1.63;;
8986;SDS011;4529;51.360;12.474;2022-09-01T07:32:43;1.60;;;1.50;;
8986;SDS011;4529;51.360;12.474;2022-09-01T07:37:47;3.03;;;1.30;;
8986;SDS011;4529;51.360;12.474;2022-09-01T07:42:53;1.47;;;1.47;;
8986;SDS011;4529;51.360;12.474;2022-09-01T07:47:57;1.70;;;1.60;;
8986;SDS011;4529;51.360;12.474;2022-09-01T07:53:01;1.63;;;1.53;;
8986;SDS011;4529;51.360;12.474;2022-09-01T07:58:05;2.20;;;2.00;;
8986;SDS011;4529;51.360;12.474;2022-09-01T08:03:09;2.17;;;1.93;;
8986;SDS011;4529;51.360;12.474;2022-09-01T08:08:13;2.10;;;1.87;;
8986;SDS011;4529;51.360;12.474;2022-09-01T08:13:17;1.77;;;1.70;;
8986;SDS011;4529;51.360;12.474;2022-09-01T08:18:21;3.23;;;2.00;;
8986;SDS011;4529;51.360;12.474;2022-09-01T08:23:25;3.20;;;2.00;;
8986;SDS011;4529;51.360;12.474;2022-09-01T08:28:28;2.37;;;1.80;;
8986;SDS011;4529;51.360;12.474;2022-09-01T08:33:32;2.10;;;1.90;;
8986;SDS011;4529;51.360;12.474;2022-09-01T08:38:35;2.87;;;2.10;;
8986;SDS011;4529;51.360;12.474;2022-09-01T08:48:55;2.10;;;2.00;;
8986;SDS011;4529;51.360;12.474;2022-09-01T08:54:17;2.57;;;1.87;;
8986;SDS011;4529;51.360;12.474;2022-09-01T08:59:25;2.00;;;1.90;;
8986;SDS011;4529;51.360;12.474;2022-09-01T09:09:35;2.07;;;1.70;;
8986;SDS011;4529;51.360;12.474;2022-09-01T09:14:44;1.90;;;1.80;;
8986;SDS011;4529;51.360;12.474;2022-09-01T09:19:51;1.73;;;1.50;;
8986;SDS011;4529;51.360;12.474;2022-09-01T09:24:56;1.80;;;1.70;;
8986;SDS011;4529;51.360;12.474;2022-09-01T09:30:03;1.73;;;1.63;;
8986;SDS011;4529;51.360;12.474;2022-09-01T09:35:24;1.90;;;1.80;;
8986;SDS011;4529;51.360;12.474;2022-09-01T09:40:25;1.83;;;1.73;;
8986;SDS011;4529;51.360;12.474;2022-09-01T09:45:31;2.90;;;1.87;;
8986;SDS011;4529;51.360;12.474;2022-09-01T09:50:39;2.00;;;1.80;;
8986;SDS011;4529;51.360;12.474;2022-09-01T09:55:52;1.57;;;1.47;;
8986;SDS011;4529;51.360;12.474;2022-09-01T10:01:00;1.60;;;1.50;;
8986;SDS011;4529;51.360;12.474;2022-09-01T10:06:04;2.07;;;1.60;;
8986;SDS011;4529;51.360;12.474;2022-09-01T10:11:08;3.13;;;1.50;;
8986;SDS011;4529;51.360;12.474;2022-09-01T10:16:15;2.70;;;1.47;;
8986;SDS011;4529;51.360;12.474;2022-09-01T10:21:23;1.10;;;1.10;;
8986;SDS011;4529;51.360;12.474;2022-09-01T10:26:28;1.60;;;1.50;;
8986;SDS011;4529;51.360;12.474;2022-09-01T10:31:28;1.70;;;1.40;;
8986;SDS011;4529;51.360;12.474;2022-09-01T10:36:32;1.20;;;1.20;;
8986;SDS011;4529;51.360;12.474;2022-09-01T10:46:44;1.23;;;1.20;;
8986;SDS011;4529;51.360;12.474;2022-09-01T10:51:48;0.97;;;0.97;;
8986;SDS011;4529;51.360;12.474;2022-09-01T10:56:52;0.80;;;0.80;;
8986;SDS011;4529;51.360;12.474;2022-09-01T11:02:10;1.80;;;1.20;;
8986;SDS011;4529;51.360;12.474;2022-09-01T11:12:39;1.50;;;1.20;;
8986;SDS011;4529;51.360;12.474;2022-09-01T11:33:37;1.43;;;1.17;;
8986;SDS011;4529;51.360;12.474;2022-09-01T11:38:58;1.20;;;1.10;;
8986;SDS011;4529;51.360;12.474;2022-09-01T11:44:01;2.97;;;1.10;;
8986;SDS011;4529;51.360;12.474;2022-09-01T11:49:16;1.20;;;1.10;;
8986;SDS011;4529;51.360;12.474;2022-09-01T11:54:09;1.50;;;1.40;;
8986;SDS011;4529;51.360;12.474;2022-09-01T11:59:13;3.03;;;1.10;;
8986;SDS011;4529;51.360;12.474;2022-09-01T12:04:24;1.13;;;1.03;;
8986;SDS011;4529;51.360;12.474;2022-09-01T12:09:32;1.67;;;1.20;;
8986;SDS011;4529;51.360;12.474;2022-09-01T12:14:35;0.80;;;0.80;;
8986;SDS011;4529;51.360;12.474;2022-09-01T12:19:39;1.53;;;1.07;;
8986;SDS011;4529;51.360;12.474;2022-09-01T12:24:44;1.63;;;1.07;;
8986;SDS011;4529;51.360;12.474;2022-09-01T12:29:47;1.10;;;1.00;;
8986;SDS011;4529;51.360;12.474;2022-09-01T12:35:14;1.00;;;1.00;;
8986;SDS011;4529;51.360;12.474;2022-09-01T12:40:03;1.23;;;1.10;;
8986;SDS011;4529;51.360;12.474;2022-09-01T12:45:07;1.57;;;1.03;;
8986;SDS011;4529;51.360;12.474;2022-09-01T12:55:18;0.93;;;0.93;;
8986;SDS011;4529;51.360;12.474;2022-09-01T13:00:21;0.97;;;0.97;;
8986;SDS011;4529;51.360;12.474;2022-09-01T13:10:32;1.00;;;1.00;;
8986;SDS011;4529;51.360;12.474;2022-09-01T13:15:35;0.90;;;0.90;;
8986;SDS011;4529;51.360;12.474;2022-09-01T13:20:38;1.00;;;0.90;;
8986;SDS011;4529;51.360;12.474;2022-09-01T13:25:41;0.83;;;0.83;;
8986;SDS011;4529;51.360;12.474;2022-09-01T13:30:47;1.20;;;1.03;;
8986;SDS011;4529;51.360;12.474;2022-09-01T13:35:49;0.97;;;0.97;;
8986;SDS011;4529;51.360;12.474;2022-09-01T13:40:52;1.20;;;1.10;;
8986;SDS011;4529;51.360;12.474;2022-09-01T13:45:55;0.90;;;0.90;;
8986;SDS011;4529;51.360;12.474;2022-09-01T13:50:59;1.30;;;1.20;;
8986;SDS011;4529;51.360;12.474;2022-09-01T13:56:03;1.00;;;1.00;;
8986;SDS011;4529;51.360;12.474;2022-09-01T14:01:06;1.03;;;1.03;;
8986;SDS011;4529;51.360;12.474;2022-09-01T14:06:09;0.90;;;0.90;;
8986;SDS011;4529;51.360;12.474;2022-09-01T14:11:16;1.47;;;0.90;;
8986;SDS011;4529;51.360;12.474;2022-09-01T14:16:19;1.30;;;1.20;;
8986;SDS011;4529;51.360;12.474;2022-09-01T14:21:22;1.20;;;1.10;;
8986;SDS011;4529;51.360;12.474;2022-09-01T14:26:26;1.03;;;1.00;;
8986;SDS011;4529;51.360;12.474;2022-09-01T14:31:29;1.00;;;1.00;;
8986;SDS011;4529;51.360;12.474;2022-09-01T14:36:33;1.57;;;1.10;;
8986;SDS011;4529;51.360;12.474;2022-09-01T14:41:36;2.07;;;1.10;;
8986;SDS011;4529;51.360;12.474;2022-09-01T14:46:40;1.03;;;0.90;;
8986;SDS011;4529;51.360;12.474;2022-09-01T14:51:43;1.43;;;1.00;;
8986;SDS011;4529;51.360;12.474;2022-09-01T14:56:47;1.10;;;1.10;;
8986;SDS011;4529;51.360;12.474;2022-09-01T15:01:50;1.10;;;1.10;;
8986;SDS011;4529;51.360;12.474;2022-09-01T15:06:54;1.00;;;0.97;;
8986;SDS011;4529;51.360;12.474;2022-09-01T15:11:57;1.10;;;1.10;;
8986;SDS011;4529;51.360;12.474;2022-09-01T15:17:01;2.20;;;1.10;;
8986;SDS011;4529;51.360;12.474;2022-09-01T15:22:04;1.03;;;1.03;;
8986;SDS011;4529;51.360;12.474;2022-09-01T15:27:08;1.33;;;1.10;;
8986;SDS011;4529;51.360;12.474;2022-09-01T15:32:11;1.40;;;1.20;;
8986;SDS011;4529;51.360;12.474;2022-09-01T15:37:14;1.80;;;1.17;;
8986;SDS011;4529;51.360;12.474;2022-09-01T15:42:18;2.37;;;1.40;;
8986;SDS011;4529;51.360;12.474;2022-09-01T15:47:21;2.90;;;1.10;;
8986;SDS011;4529;51.360;12.474;2022-09-01T15:52:25;1.77;;;1.10;;
8986;SDS011;4529;51.360;12.474;2022-09-01T15:57:28;1.03;;;1.03;;
8986;SDS011;4529;51.360;12.474;2022-09-01T16:02:32;1.37;;;1.27;;
8986;SDS011;4529;51.360;12.474;2022-09-01T16:07:35;1.00;;;1.00;;
8986;SDS011;4529;51.360;12.474;2022-09-01T16:12:40;3.00;;;1.27;;
8986;SDS011;4529;51.360;12.474;2022-09-01T16:18:02;1.30;;;1.20;;
8986;SDS011;4529;51.360;12.474;2022-09-01T16:23:18;1.20;;;1.10;;
8986;SDS011;4529;51.360;12.474;2022-09-01T16:28:21;1.30;;;1.20;;
8986;SDS011;4529;51.360;12.474;2022-09-01T16:33:28;2.77;;;1.30;;
8986;SDS011;4529;51.360;12.474;2022-09-01T16:38:34;1.90;;;1.77;;
8986;SDS011;4529;51.360;12.474;2022-09-01T16:59:59;2.53;;;1.30;;
8986;SDS011;4529;51.360;12.474;2022-09-01T17:10:40;4.57;;;1.57;;
8986;SDS011;4529;51.360;12.474;2022-09-01T17:15:43;3.17;;;1.33;;
8986;SDS011;4529;51.360;12.474;2022-09-01T17:20:47;1.77;;;1.30;;
8986;SDS011;4529;51.360;12.474;2022-09-01T17:25:51;2.03;;;1.60;;
8986;SDS011;4529;51.360;12.474;2022-09-01T17:30:59;2.53;;;1.40;;
8986;SDS011;4529;51.360;12.474;2022-09-01T17:41:40;1.60;;;1.50;;
8986;SDS011;4529;51.360;12.474;2022-09-01T17:52:45;1.60;;;1.50;;
8986;SDS011;4529;51.360;12.474;2022-09-01T17:57:31;3.87;;;1.80;;
8986;SDS011;4529;51.360;12.474;2022-09-01T18:19:02;3.07;;;2.00;;
8986;SDS011;4529;51.360;12.474;2022-09-01T18:24:15;4.07;;;1.50;;
8986;SDS011;4529;51.360;12.474;2022-09-01T18:29:17;1.87;;;1.77;;
8986;SDS011;4529;51.360;12.474;2022-09-01T18:40:02;1.70;;;1.60;;
8986;SDS011;4529;51.360;12.474;2022-09-01T18:45:20;1.90;;;1.70;;
8986;SDS011;4529;51.360;12.474;2022-09-01T18:56:18;1.80;;;1.70;;
8986;SDS011;4529;51.360;12.474;2022-09-01T19:12:47;1.83;;;1.70;;
8986;SDS011;4529;51.360;12.474;2022-09-01T19:18:02;1.90;;;1.80;;
8986;SDS011;4529;51.360;12.474;2022-09-01T19:23:18;1.73;;;1.63;;
8986;SDS011;4529;51.360;12.474;2022-09-01T19:28:46;1.90;;;1.80;;
8986;SDS011;4529;51.360;12.474;2022-09-01T19:33:54;3.00;;;2.00;;
8986;SDS011;4529;51.360;12.474;2022-09-01T19:38:57;2.47;;;2.27;;
8986;SDS011;4529;51.360;12.474;2022-09-01T19:44:06;4.73;;;3.43;;
8986;SDS011;4529;51.360;12.474;2022-09-01T19:49:38;5.93;;;4.03;;
8986;SDS011;4529;51.360;12.474;2022-09-01T19:55:10;4.53;;;3.73;;
8986;SDS011;4529;51.360;12.474;2022-09-01T20:00:25;3.10;;;2.80;;
8986;SDS011;4529;51.360;12.474;2022-09-01T20:05:31;2.97;;;2.60;;
8986;SDS011;4529;51.360;12.474;2022-09-01T20:10:42;2.43;;;2.20;;
8986;SDS011;4529;51.360;12.474;2022-09-01T20:15:57;2.60;;;2.40;;
8986;SDS011;4529;51.360;12.474;2022-09-01T20:21:12;2.37;;;2.17;;
8986;SDS011;4529;51.360;12.474;2022-09-01T20:26:19;2.90;;;2.20;;
8986;SDS011;4529;51.360;12.474;2022-09-01T20:31:27;3.63;;;2.30;;
8986;SDS011;4529;51.360;12.474;2022-09-01T20:36:36;2.10;;;2.00;;
8986;SDS011;4529;51.360;12.474;2022-09-01T20:46:53;2.10;;;2.00;;
8986;SDS011;4529;51.360;12.474;2022-09-01T20:51:58;3.10;;;1.97;;
8986;SDS011;4529;51.360;12.474;2022-09-01T20:57:08;2.40;;;2.20;;
8986;SDS011;4529;51.360;12.474;2022-09-01T21:02:27;2.50;;;2.30;;
8986;SDS011;4529;51.360;12.474;2022-09-01T21:08:08;2.70;;;2.30;;
8986;SDS011;4529;51.360;12.474;2022-09-01T21:12:51;3.13;;;2.20;;
8986;SDS011;4529;51.360;12.474;2022-09-01T21:23:34;2.87;;;2.30;;
8986;SDS011;4529;51.360;12.474;2022-09-01T21:28:38;3.50;;;2.33;;
8986;SDS011;4529;51.360;12.474;2022-09-01T21:33:42;2.50;;;2.30;;
8986;SDS011;4529;51.360;12.474;2022-09-01T21:38:46;2.33;;;2.20;;
8986;SDS011;4529;51.360;12.474;2022-09-01T21:43:50;2.80;;;2.53;;
8986;SDS011;4529;51.360;12.474;2022-09-01T21:48:55;2.30;;;2.20;;
8986;SDS011;4529;51.360;12.474;2022-09-01T21:53:59;2.40;;;2.20;;
8986;SDS011;4529;51.360;12.474;2022-09-01T21:59:03;2.43;;;2.23;;
8986;SDS011;4529;51.360;12.474;2022-09-01T22:04:06;2.43;;;2.23;;
8986;SDS011;4529;51.360;12.474;2022-09-01T22:09:10;2.50;;;2.30;;
8986;SDS011;4529;51.360;12.474;2022-09-01T22:14:14;3.97;;;2.30;;
8986;SDS011;4529;51.360;12.474;2022-09-01T22:19:17;2.43;;;2.23;;
8986;SDS011;4529;51.360;12.474;2022-09-01T22:24:20;2.23;;;2.10;;
8986;SDS011;4529;51.360;12.474;2022-09-01T22:29:24;2.47;;;2.27;;
8986;SDS011;4529;51.360;12.474;2022-09-01T22:34:27;3.57;;;2.03;;
8986;SDS011;4529;51.360;12.474;2022-09-01T22:39:31;2.17;;;2.00;;
8986;SDS011;4529;51.360;12.474;2022-09-01T22:44:34;2.30;;;2.20;;
8986;SDS011;4529;51.360;12.474;2022-09-01T22:49:38;2.50;;;2.30;;
8986;SDS011;4529;51.360;12.474;2022-09-01T22:54:41;2.50;;;2.30;;
8986;SDS011;4529;51.360;12.474;2022-09-01T22:59:45;4.53;;;2.27;;
8986;SDS011;4529;51.360;12.474;2022-09-01T23:04:48;2.63;;;2.23;;
8986;SDS011;4529;51.360;12.474;2022-09-01T23:09:51;3.90;;;2.40;;
8986;SDS011;4529;51.360;12.474;2022-09-01T23:14:55;2.97;;;2.10;;
8986;SDS011;4529;51.360;12.474;2022-09-01T23:19:58;2.70;;;2.50;;
8986;SDS011;4529;51.360;12.474;2022-09-01T23:25:03;3.20;;;2.30;;
8986;SDS011;4529;51.360;12.474;2022-09-01T23:30:06;2.23;;;2.13;;
8986;SDS011;4529;51.360;12.474;2022-09-01T23:35:09;3.47;;;2.50;;
8986;SDS011;4529;51.360;12.474;2022-09-01T23:40:13;2.50;;;2.30;;
8986;SDS011;4529;51.360;12.474;2022-09-01T23:45:17;2.30;;;2.17;;
8986;SDS011;4529;51.360;12.474;2022-09-01T23:50:22;2.30;;;2.10;;
8986;SDS011;4529;51.360;12.474;2022-09-01T23:55:26;3.40;;;2.50;;
